PWSweather.com
Personal Weather Stations
Station Observations
RIORANCHO
Corrales Heights, Rio Rancho, NM 87124

Corrales HeightsRio Rancho, NM 87124

Lat: 35.241928, Lon: -106.647095

Elevation: 5297

Station Type: Davis Vantage Pro 2 Plus

http://www.weatherriorancho.com

High Low Average
Temperature 50.8°F10.4°C 29.6°F-1.3°C 38.7°F3.7°C
Dew Point 25.9°F-3.4°C 10.8°F-11.8°C 17.8°F-7.9°C
Winds 12.7 mph 20.4 kmh Calm Calm 2.0 mph SW3.2 kmh SW
Wind Gusts 23.0 mph37.0 kmh -- 4.0 mph6.4 kmh
Humidity 61% 26% 44%
Pressure 30.10 in1019.3 mb 29.90 in1012.5 mb -
Precipitation 0.00 in0.0 mm - -
Hour Temp Dew Point Humidity Winds Wind Gusts Pressure Precip Precip Rate Daily Precip Total
12:00 AM 40.2°F4.6°C 28.6°F-1.9°C 63% 10.4 mph WNW16.7 kmh WNW 13.8 mph22.2 kmh 29.87 in1011.5 mb - 0.00 in0.0 mm 0.00 in0.0 mm
12:10 AM 39.6°F4.2°C 28.4°F-2.0°C 64% 10.4 mph W16.7 kmh W 12.7 mph20.4 kmh 29.88 in1011.9 mb - 0.00 in0.0 mm 0.00 in0.0 mm
12:20 AM 39.5°F4.2°C 27.9°F-2.3°C 63% 6.9 mph W11.1 kmh W 15.0 mph24.1 kmh 29.89 in1012.2 mb - 0.00 in0.0 mm 0.00 in0.0 mm
12:30 AM 39.4°F4.1°C 27.1°F-2.7°C 61% 9.2 mph W14.8 kmh W 11.5 mph18.5 kmh 29.89 in1012.2 mb - 0.00 in0.0 mm 0.00 in0.0 mm
12:40 AM 39.4°F4.1°C 26.2°F-3.2°C 59% 11.5 mph W18.5 kmh W 17.3 mph27.8 kmh 29.90 in1012.5 mb - 0.00 in0.0 mm 0.00 in0.0 mm
12:50 AM 39.3°F4.1°C 26.1°F-3.3°C 59% 15.0 mph W24.1 kmh W 23.0 mph37.0 kmh 29.91 in1012.9 mb - 0.00 in0.0 mm 0.00 in0.0 mm
01:00 AM 39.1°F3.9°C 25.6°F-3.6°C 58% 12.7 mph WNW20.4 kmh WNW 19.6 mph31.5 kmh 29.91 in1012.9 mb - 0.00 in0.0 mm 0.00 in0.0 mm
01:10 AM 38.8°F3.8°C 25.7°F-3.5°C 59% 12.7 mph W20.4 kmh W 18.4 mph29.6 kmh 29.90 in1012.5 mb - 0.00 in0.0 mm 0.00 in0.0 mm
01:20 AM 38.6°F3.7°C 25.9°F-3.4°C 60% 10.4 mph W16.7 kmh W 17.3 mph27.8 kmh 29.90 in1012.5 mb - 0.00 in0.0 mm 0.00 in0.0 mm
01:30 AM 38.3°F3.5°C 25.6°F-3.6°C 60% 9.2 mph WNW14.8 kmh WNW 18.4 mph29.6 kmh 29.90 in1012.5 mb - 0.00 in0.0 mm 0.00 in0.0 mm
01:40 AM 38.1°F3.4°C 25.4°F-3.7°C 60% 11.5 mph W18.5 kmh W 23.0 mph37.0 kmh 29.91 in1012.9 mb - 0.00 in0.0 mm 0.00 in0.0 mm
01:50 AM 37.7°F3.2°C 25.5°F-3.6°C 61% 12.7 mph WNW20.4 kmh WNW 17.3 mph27.8 kmh 29.91 in1012.9 mb - 0.00 in0.0 mm 0.00 in0.0 mm
02:00 AM 37.4°F3.0°C 25.2°F-3.8°C 61% 5.8 mph WNW9.3 kmh WNW 12.7 mph20.4 kmh 29.91 in1012.9 mb - 0.00 in0.0 mm 0.00 in0.0 mm
02:10 AM 37.3°F2.9°C 24.7°F-4.1°C 60% 5.8 mph WNW9.3 kmh WNW 12.7 mph20.4 kmh 29.92 in1013.2 mb - 0.00 in0.0 mm 0.00 in0.0 mm
02:20 AM 37.3°F2.9°C 23.8°F-4.6°C 58% 5.8 mph NW9.3 kmh NW 16.1 mph25.9 kmh 29.93 in1013.5 mb - 0.00 in0.0 mm 0.00 in0.0 mm
02:30 AM 37.2°F2.9°C 23.8°F-4.6°C 58% 4.6 mph NW7.4 kmh NW 5.8 mph9.3 kmh 29.93 in1013.5 mb - 0.00 in0.0 mm 0.00 in0.0 mm
02:40 AM 37.3°F2.9°C 23.8°F-4.6°C 58% 1.2 mph N1.9 kmh N 4.6 mph7.4 kmh 29.94 in1013.9 mb - 0.00 in0.0 mm 0.00 in0.0 mm
02:50 AM 37.3°F2.9°C 23.4°F-4.8°C 57% 1.2 mph NNW1.9 kmh NNW 2.3 mph3.7 kmh 29.94 in1013.9 mb - 0.00 in0.0 mm 0.00 in0.0 mm
03:00 AM 37.3°F2.9°C 23.4°F-4.8°C 57% Calm Calm 1.2 mph1.9 kmh 29.94 in1013.9 mb - 0.00 in0.0 mm 0.00 in0.0 mm
03:10 AM 37.4°F3.0°C 22.7°F-5.2°C 55% Calm Calm 1.2 mph1.9 kmh 29.95 in1014.2 mb - 0.00 in0.0 mm 0.00 in0.0 mm
03:20 AM 37.6°F3.1°C 22.5°F-5.3°C 54% 2.3 mph WNW3.7 kmh WNW 3.5 mph5.6 kmh 29.95 in1014.2 mb - 0.00 in0.0 mm 0.00 in0.0 mm
03:30 AM 37.8°F3.2°C 21.3°F-5.9°C 51% 4.6 mph N7.4 kmh N 6.9 mph11.1 kmh 29.95 in1014.2 mb - 0.00 in0.0 mm 0.00 in0.0 mm
03:40 AM 38.0°F3.3°C 20.5°F-6.4°C 49% 4.6 mph NW7.4 kmh NW 4.6 mph7.4 kmh 29.96 in1014.6 mb - 0.00 in0.0 mm 0.00 in0.0 mm
03:50 AM 38.0°F3.3°C 20.0°F-6.7°C 48% Calm Calm -- 29.96 in1014.6 mb - 0.00 in0.0 mm 0.00 in0.0 mm
04:00 AM 38.0°F3.3°C 20.5°F-6.4°C 49% 1.2 mph NW1.9 kmh NW 3.5 mph5.6 kmh 29.97 in1014.9 mb - 0.00 in0.0 mm 0.00 in0.0 mm
04:10 AM 37.8°F3.2°C 21.3°F-5.9°C 51% 8.1 mph W13.0 kmh W 11.5 mph18.5 kmh 29.97 in1014.9 mb - 0.00 in0.0 mm 0.00 in0.0 mm
04:20 AM 37.5°F3.1°C 21.5°F-5.8°C 52% 3.5 mph WNW5.6 kmh WNW 8.1 mph13.0 kmh 29.97 in1014.9 mb - 0.00 in0.0 mm 0.00 in0.0 mm
04:30 AM 37.3°F2.9°C 21.7°F-5.7°C 53% 2.3 mph WNW3.7 kmh WNW 5.8 mph9.3 kmh 29.98 in1015.2 mb - 0.00 in0.0 mm 0.00 in0.0 mm
04:40 AM 37.2°F2.9°C 21.1°F-6.1°C 52% 4.6 mph WNW7.4 kmh WNW 10.4 mph16.7 kmh 29.98 in1015.2 mb - 0.00 in0.0 mm 0.00 in0.0 mm
04:50 AM 36.9°F2.7°C 20.9°F-6.2°C 52% 3.5 mph WNW5.6 kmh WNW 6.9 mph11.1 kmh 29.98 in1015.2 mb - 0.00 in0.0 mm 0.00 in0.0 mm
05:00 AM 36.4°F2.4°C 20.4°F-6.4°C 52% Calm Calm 2.3 mph3.7 kmh 29.98 in1015.2 mb - 0.00 in0.0 mm 0.00 in0.0 mm
05:10 AM 35.8°F2.1°C 19.8°F-6.8°C 52% 2.3 mph WNW3.7 kmh WNW 6.9 mph11.1 kmh 29.99 in1015.6 mb - 0.00 in0.0 mm 0.00 in0.0 mm
05:20 AM 35.2°F1.8°C 19.3°F-7.1°C 52% 8.1 mph W13.0 kmh W 16.1 mph25.9 kmh 30.00 in1015.9 mb - 0.00 in0.0 mm 0.00 in0.0 mm
05:30 AM 34.5°F1.4°C 18.2°F-7.7°C 51% 5.8 mph NW9.3 kmh NW 10.4 mph16.7 kmh 30.00 in1015.9 mb - 0.00 in0.0 mm 0.00 in0.0 mm
05:40 AM 34.0°F1.1°C 18.2°F-7.7°C 52% 2.3 mph NW3.7 kmh NW 11.5 mph18.5 kmh 30.01 in1016.3 mb - 0.00 in0.0 mm 0.00 in0.0 mm
05:50 AM 33.6°F0.9°C 18.3°F-7.6°C 53% 6.9 mph NW11.1 kmh NW 11.5 mph18.5 kmh 30.01 in1016.3 mb - 0.00 in0.0 mm 0.00 in0.0 mm
06:00 AM 33.2°F0.7°C 18.3°F-7.6°C 54% 5.8 mph W9.3 kmh W 10.4 mph16.7 kmh 30.01 in1016.3 mb - 0.00 in0.0 mm 0.00 in0.0 mm
06:10 AM 32.8°F0.4°C 18.4°F-7.6°C 55% 9.2 mph NW14.8 kmh NW 12.7 mph20.4 kmh 30.02 in1016.6 mb - 0.00 in0.0 mm 0.00 in0.0 mm
06:20 AM 32.4°F0.2°C 18.0°F-7.8°C 55% 5.8 mph NW9.3 kmh NW 11.5 mph18.5 kmh 30.03 in1016.9 mb - 0.00 in0.0 mm 0.00 in0.0 mm
06:30 AM 32.0°F0.0°C 18.5°F-7.5°C 57% 4.6 mph NW7.4 kmh NW 5.8 mph9.3 kmh 30.03 in1016.9 mb - 0.00 in0.0 mm 0.00 in0.0 mm
06:40 AM 31.8°F-0.1°C 18.7°F-7.4°C 58% 1.2 mph NW1.9 kmh NW 3.5 mph5.6 kmh 30.04 in1017.3 mb - 0.00 in0.0 mm 0.00 in0.0 mm
06:50 AM 31.6°F-0.2°C 18.5°F-7.5°C 58% 4.6 mph W7.4 kmh W 11.5 mph18.5 kmh 30.04 in1017.3 mb - 0.00 in0.0 mm 0.00 in0.0 mm
07:00 AM 31.6°F-0.2°C 18.5°F-7.5°C 58% 5.8 mph SW9.3 kmh SW 10.4 mph16.7 kmh 30.03 in1016.9 mb - 0.00 in0.0 mm 0.00 in0.0 mm
07:10 AM 31.4°F-0.3°C 18.3°F-7.6°C 58% 1.2 mph W1.9 kmh W 3.5 mph5.6 kmh 30.04 in1017.3 mb - 0.00 in0.0 mm 0.00 in0.0 mm
07:20 AM 31.1°F-0.5°C 18.4°F-7.6°C 59% 1.2 mph WNW1.9 kmh WNW 3.5 mph5.6 kmh 30.04 in1017.3 mb - 0.00 in0.0 mm 0.00 in0.0 mm
07:30 AM 30.7°F-0.7°C 18.1°F-7.7°C 59% Calm Calm -- 30.05 in1017.6 mb - 0.00 in0.0 mm 0.00 in0.0 mm
07:40 AM 30.5°F-0.8°C 18.3°F-7.6°C 60% Calm Calm 3.5 mph5.6 kmh 30.06 in1017.9 mb - 0.00 in0.0 mm 0.00 in0.0 mm
07:50 AM 30.3°F-0.9°C 18.1°F-7.7°C 60% Calm Calm -- 30.07 in1018.3 mb - 0.00 in0.0 mm 0.00 in0.0 mm
08:00 AM 29.9°F-1.2°C 18.1°F-7.7°C 61% 2.3 mph NW3.7 kmh NW 8.1 mph13.0 kmh 30.07 in1018.3 mb - 0.00 in0.0 mm 0.00 in0.0 mm
08:10 AM 29.8°F-1.2°C 18.0°F-7.8°C 61% 2.3 mph NW3.7 kmh NW 5.8 mph9.3 kmh 30.07 in1018.3 mb - 0.00 in0.0 mm 0.00 in0.0 mm
08:20 AM 29.6°F-1.3°C 17.8°F-7.9°C 61% 1.2 mph W1.9 kmh W 1.2 mph1.9 kmh 30.08 in1018.6 mb - 0.00 in0.0 mm 0.00 in0.0 mm
08:30 AM 29.6°F-1.3°C 17.8°F-7.9°C 61% Calm Calm 1.2 mph1.9 kmh 30.09 in1019.0 mb - 0.00 in0.0 mm 0.00 in0.0 mm
08:40 AM 29.9°F-1.2°C 18.1°F-7.7°C 61% Calm Calm -- 30.09 in1019.0 mb - 0.00 in0.0 mm 0.00 in0.0 mm
08:50 AM 30.6°F-0.8°C 18.3°F-7.6°C 60% Calm Calm -- 30.09 in1019.0 mb - 0.00 in0.0 mm 0.00 in0.0 mm
09:00 AM 31.2°F-0.4°C 18.6°F-7.4°C 59% Calm Calm -- 30.09 in1019.0 mb - 0.00 in0.0 mm 0.00 in0.0 mm
09:10 AM 31.9°F-0.1°C 18.4°F-7.6°C 57% Calm Calm 3.5 mph5.6 kmh 30.10 in1019.3 mb - 0.00 in0.0 mm 0.00 in0.0 mm
09:20 AM 32.4°F0.2°C 18.4°F-7.6°C 56% Calm Calm -- 30.10 in1019.3 mb - 0.00 in0.0 mm 0.00 in0.0 mm
09:30 AM 33.0°F0.6°C 18.6°F-7.4°C 55% 1.2 mph NW1.9 kmh NW 2.3 mph3.7 kmh 30.10 in1019.3 mb - 0.00 in0.0 mm 0.00 in0.0 mm
09:40 AM 33.5°F0.8°C 18.6°F-7.4°C 54% 1.2 mph N1.9 kmh N 3.5 mph5.6 kmh 30.10 in1019.3 mb - 0.00 in0.0 mm 0.00 in0.0 mm
09:50 AM 34.0°F1.1°C 18.6°F-7.4°C 53% 1.2 mph N1.9 kmh N 3.5 mph5.6 kmh 30.10 in1019.3 mb - 0.00 in0.0 mm 0.00 in0.0 mm
10:00 AM 34.3°F1.3°C 18.5°F-7.5°C 52% 1.2 mph N1.9 kmh N 4.6 mph7.4 kmh 30.09 in1019.0 mb - 0.00 in0.0 mm 0.00 in0.0 mm
10:10 AM 34.9°F1.6°C 18.6°F-7.4°C 51% Calm Calm 2.3 mph3.7 kmh 30.10 in1019.3 mb - 0.00 in0.0 mm 0.00 in0.0 mm
10:20 AM 35.4°F1.9°C 18.6°F-7.4°C 50% Calm Calm -- 30.10 in1019.3 mb - 0.00 in0.0 mm 0.00 in0.0 mm
10:30 AM 36.1°F2.3°C 19.2°F-7.1°C 50% Calm Calm -- 30.10 in1019.3 mb - 0.00 in0.0 mm 0.00 in0.0 mm
10:40 AM 37.6°F3.1°C 19.6°F-6.9°C 48% Calm Calm 1.2 mph1.9 kmh 30.10 in1019.3 mb - 0.00 in0.0 mm 0.00 in0.0 mm
10:50 AM 38.3°F3.5°C 19.3°F-7.1°C 46% 1.2 mph NE1.9 kmh NE 5.8 mph9.3 kmh 30.10 in1019.3 mb - 0.00 in0.0 mm 0.00 in0.0 mm
11:00 AM 38.4°F3.6°C 19.4°F-7.0°C 46% Calm Calm 2.3 mph3.7 kmh 30.10 in1019.3 mb - 0.00 in0.0 mm 0.00 in0.0 mm
11:10 AM 38.6°F3.7°C 19.1°F-7.2°C 45% Calm Calm -- 30.10 in1019.3 mb - 0.00 in0.0 mm 0.00 in0.0 mm
11:20 AM 39.8°F4.3°C 19.7°F-6.8°C 44% Calm Calm -- 30.10 in1019.3 mb - 0.00 in0.0 mm 0.00 in0.0 mm
11:30 AM 39.3°F4.1°C 18.7°F-7.4°C 43% Calm Calm -- 30.10 in1019.3 mb - 0.00 in0.0 mm 0.00 in0.0 mm
11:40 AM 39.3°F4.1°C 19.2°F-7.1°C 44% Calm Calm 2.3 mph3.7 kmh 30.10 in1019.3 mb - 0.00 in0.0 mm 0.00 in0.0 mm
11:50 AM 40.2°F4.6°C 19.4°F-7.0°C 43% Calm Calm -- 30.10 in1019.3 mb - 0.00 in0.0 mm 0.00 in0.0 mm
12:00 PM 40.0°F4.4°C 18.7°F-7.4°C 42% Calm Calm 1.2 mph1.9 kmh 30.10 in1019.3 mb - 0.00 in0.0 mm 0.00 in0.0 mm
12:10 PM 40.6°F4.8°C 19.3°F-7.1°C 42% Calm Calm -- 30.10 in1019.3 mb - 0.00 in0.0 mm 0.00 in0.0 mm
12:20 PM 42.2°F5.7°C 20.1°F-6.6°C 41% Calm Calm -- 30.10 in1019.3 mb - 0.00 in0.0 mm 0.00 in0.0 mm
12:30 PM 42.0°F5.6°C 18.8°F-7.3°C 39% Calm Calm 1.2 mph1.9 kmh 30.10 in1019.3 mb - 0.00 in0.0 mm 0.00 in0.0 mm
12:40 PM 41.6°F5.3°C 18.4°F-7.6°C 39% Calm Calm -- 30.10 in1019.3 mb - 0.00 in0.0 mm 0.00 in0.0 mm
12:50 PM 41.8°F5.4°C 18.6°F-7.4°C 39% 2.3 mph S3.7 kmh S 4.6 mph7.4 kmh 30.10 in1019.3 mb - 0.00 in0.0 mm 0.00 in0.0 mm
01:00 PM 41.9°F5.5°C 18.7°F-7.4°C 39% Calm Calm -- 30.09 in1019.0 mb - 0.00 in0.0 mm 0.00 in0.0 mm
01:10 PM 42.8°F6.0°C 18.9°F-7.3°C 38% Calm Calm 1.2 mph1.9 kmh 30.09 in1019.0 mb - 0.00 in0.0 mm 0.00 in0.0 mm
01:20 PM 45.3°F7.4°C 19.2°F-7.1°C 35% Calm Calm -- 30.08 in1018.6 mb - 0.00 in0.0 mm 0.00 in0.0 mm
01:30 PM 45.8°F7.7°C 18.3°F-7.6°C 33% 1.2 mph SSW1.9 kmh SSW 3.5 mph5.6 kmh 30.07 in1018.3 mb - 0.00 in0.0 mm 0.00 in0.0 mm
01:40 PM 44.5°F6.9°C 19.1°F-7.2°C 36% Calm Calm -- 30.07 in1018.3 mb - 0.00 in0.0 mm 0.00 in0.0 mm
01:50 PM 47.3°F8.5°C 18.9°F-7.3°C 32% Calm Calm 2.3 mph3.7 kmh 30.06 in1017.9 mb - 0.00 in0.0 mm 0.00 in0.0 mm
02:00 PM 45.1°F7.3°C 18.3°F-7.6°C 34% 2.3 mph NW3.7 kmh NW 3.5 mph5.6 kmh 30.05 in1017.6 mb - 0.00 in0.0 mm 0.00 in0.0 mm
02:10 PM 46.8°F8.2°C 18.5°F-7.5°C 32% Calm Calm -- 30.05 in1017.6 mb - 0.00 in0.0 mm 0.00 in0.0 mm
02:20 PM 44.8°F7.1°C 17.4°F-8.1°C 33% 1.2 mph SSW1.9 kmh SSW -- 30.05 in1017.6 mb - 0.00 in0.0 mm 0.00 in0.0 mm
02:30 PM 45.8°F7.7°C 17.5°F-8.1°C 32% 1.2 mph S1.9 kmh S 6.9 mph11.1 kmh 30.04 in1017.3 mb - 0.00 in0.0 mm 0.00 in0.0 mm
02:40 PM 47.5°F8.6°C 17.5°F-8.1°C 30% 1.2 mph SSW1.9 kmh SSW 3.5 mph5.6 kmh 30.04 in1017.3 mb - 0.00 in0.0 mm 0.00 in0.0 mm
02:50 PM 45.6°F7.6°C 17.4°F-8.1°C 32% Calm Calm -- 30.03 in1016.9 mb - 0.00 in0.0 mm 0.00 in0.0 mm
03:00 PM 47.6°F8.7°C 16.9°F-8.4°C 29% Calm Calm -- 30.03 in1016.9 mb - 0.00 in0.0 mm 0.00 in0.0 mm
03:10 PM 48.2°F9.0°C 16.5°F-8.6°C 28% Calm Calm -- 30.03 in1016.9 mb - 0.00 in0.0 mm 0.00 in0.0 mm
03:20 PM 47.0°F8.3°C 16.4°F-8.7°C 29% 1.2 mph S1.9 kmh S 3.5 mph5.6 kmh 30.03 in1016.9 mb - 0.00 in0.0 mm 0.00 in0.0 mm
03:30 PM 47.2°F8.4°C 17.3°F-8.2°C 30% Calm Calm 3.5 mph5.6 kmh 30.03 in1016.9 mb - 0.00 in0.0 mm 0.00 in0.0 mm
03:40 PM 47.6°F8.7°C 16.1°F-8.8°C 28% 1.2 mph S1.9 kmh S 3.5 mph5.6 kmh 30.03 in1016.9 mb - 0.00 in0.0 mm 0.00 in0.0 mm
03:50 PM 49.1°F9.5°C 16.5°F-8.6°C 27% 2.3 mph SW3.7 kmh SW 4.6 mph7.4 kmh 30.02 in1016.6 mb - 0.00 in0.0 mm 0.00 in0.0 mm
04:00 PM 49.4°F9.7°C 16.8°F-8.4°C 27% Calm Calm -- 30.02 in1016.6 mb - 0.00 in0.0 mm 0.00 in0.0 mm
04:10 PM 49.6°F9.8°C 16.9°F-8.4°C 27% 1.2 mph WSW1.9 kmh WSW 3.5 mph5.6 kmh 30.02 in1016.6 mb - 0.00 in0.0 mm 0.00 in0.0 mm
04:20 PM 50.8°F10.4°C 17.1°F-8.3°C 26% Calm Calm -- 30.01 in1016.3 mb - 0.00 in0.0 mm 0.00 in0.0 mm
04:30 PM 48.9°F9.4°C 16.3°F-8.7°C 27% Calm Calm -- 30.01 in1016.3 mb - 0.00 in0.0 mm 0.00 in0.0 mm
04:40 PM 48.7°F9.3°C 16.1°F-8.8°C 27% Calm Calm -- 30.01 in1016.3 mb - 0.00 in0.0 mm 0.00 in0.0 mm
04:50 PM 49.7°F9.8°C 16.1°F-8.8°C 26% Calm Calm -- 30.01 in1016.3 mb - 0.00 in0.0 mm 0.00 in0.0 mm
05:00 PM 48.1°F8.9°C 16.5°F-8.6°C 28% Calm Calm 3.5 mph5.6 kmh 30.01 in1016.3 mb - 0.00 in0.0 mm 0.00 in0.0 mm
05:10 PM 49.4°F9.7°C 16.8°F-8.4°C 27% Calm Calm 3.5 mph5.6 kmh 30.01 in1016.3 mb - 0.00 in0.0 mm 0.00 in0.0 mm
05:20 PM 48.0°F8.9°C 16.4°F-8.7°C 28% Calm Calm -- 30.01 in1016.3 mb - 0.00 in0.0 mm 0.00 in0.0 mm
05:30 PM 47.6°F8.7°C 16.1°F-8.8°C 28% Calm Calm -- 30.01 in1016.3 mb - 0.00 in0.0 mm 0.00 in0.0 mm
05:40 PM 47.4°F8.6°C 15.9°F-8.9°C 28% Calm Calm 1.2 mph1.9 kmh 30.01 in1016.3 mb - 0.00 in0.0 mm 0.00 in0.0 mm
05:50 PM 46.4°F8.0°C 15.8°F-9.0°C 29% Calm Calm -- 30.01 in1016.3 mb - 0.00 in0.0 mm 0.00 in0.0 mm
06:00 PM 46.3°F7.9°C 15.7°F-9.1°C 29% Calm Calm 1.2 mph1.9 kmh 30.01 in1016.3 mb - 0.00 in0.0 mm 0.00 in0.0 mm
06:10 PM 46.4°F8.0°C 15.8°F-9.0°C 29% Calm Calm 3.5 mph5.6 kmh 30.00 in1015.9 mb - 0.00 in0.0 mm 0.00 in0.0 mm
06:20 PM 45.9°F7.7°C 15.4°F-9.2°C 29% Calm Calm 1.2 mph1.9 kmh 30.00 in1015.9 mb - 0.00 in0.0 mm 0.00 in0.0 mm
06:30 PM 45.4°F7.4°C 15.7°F-9.1°C 30% 1.2 mph SSE1.9 kmh SSE 3.5 mph5.6 kmh 30.01 in1016.3 mb - 0.00 in0.0 mm 0.00 in0.0 mm
06:40 PM 44.9°F7.2°C 15.3°F-9.3°C 30% Calm Calm -- 30.00 in1015.9 mb - 0.00 in0.0 mm 0.00 in0.0 mm
06:50 PM 44.7°F7.1°C 15.1°F-9.4°C 30% Calm Calm -- 30.00 in1015.9 mb - 0.00 in0.0 mm 0.00 in0.0 mm
07:00 PM 44.4°F6.9°C 14.8°F-9.6°C 30% Calm Calm -- 30.00 in1015.9 mb - 0.00 in0.0 mm 0.00 in0.0 mm
07:10 PM 44.0°F6.7°C 14.5°F-9.7°C 30% Calm Calm -- 30.00 in1015.9 mb - 0.00 in0.0 mm 0.00 in0.0 mm
07:20 PM 43.8°F6.6°C 14.4°F-9.8°C 30% Calm Calm -- 30.00 in1015.9 mb - 0.00 in0.0 mm 0.00 in0.0 mm
07:30 PM 43.4°F6.3°C 14.0°F-10.0°C 30% Calm Calm -- 30.00 in1015.9 mb - 0.00 in0.0 mm 0.00 in0.0 mm
07:40 PM 42.7°F5.9°C 13.4°F-10.3°C 30% Calm Calm -- 30.00 in1015.9 mb - 0.00 in0.0 mm 0.00 in0.0 mm
07:50 PM 41.6°F5.3°C 13.2°F-10.4°C 31% Calm Calm -- 30.00 in1015.9 mb - 0.00 in0.0 mm 0.00 in0.0 mm
08:00 PM 40.9°F4.9°C 13.3°F-10.4°C 32% Calm Calm -- 30.00 in1015.9 mb - 0.00 in0.0 mm 0.00 in0.0 mm
08:10 PM 40.5°F4.7°C 12.9°F-10.6°C 32% Calm Calm -- 30.00 in1015.9 mb - 0.00 in0.0 mm 0.00 in0.0 mm
08:20 PM 40.0°F4.4°C 12.5°F-10.8°C 32% Calm Calm -- 30.00 in1015.9 mb - 0.00 in0.0 mm 0.00 in0.0 mm
08:30 PM 39.4°F4.1°C 12.6°F-10.8°C 33% Calm Calm -- 30.01 in1016.3 mb - 0.00 in0.0 mm 0.00 in0.0 mm
08:40 PM 38.9°F3.8°C 12.2°F-11.0°C 33% Calm Calm -- 30.02 in1016.6 mb - 0.00 in0.0 mm 0.00 in0.0 mm
08:50 PM 38.5°F3.6°C 12.5°F-10.8°C 34% Calm Calm -- 30.02 in1016.6 mb - 0.00 in0.0 mm 0.00 in0.0 mm
09:00 PM 37.9°F3.3°C 12.6°F-10.8°C 35% Calm Calm 1.2 mph1.9 kmh 30.03 in1016.9 mb - 0.00 in0.0 mm 0.00 in0.0 mm
09:10 PM 37.1°F2.8°C 13.2°F-10.4°C 37% Calm Calm 1.2 mph1.9 kmh 30.03 in1016.9 mb - 0.00 in0.0 mm 0.00 in0.0 mm
09:20 PM 36.2°F2.3°C 12.4°F-10.9°C 37% Calm Calm -- 30.03 in1016.9 mb - 0.00 in0.0 mm 0.00 in0.0 mm
09:30 PM 35.6°F2.0°C 12.5°F-10.8°C 38% Calm Calm -- 30.03 in1016.9 mb - 0.00 in0.0 mm 0.00 in0.0 mm
09:40 PM 35.1°F1.7°C 12.6°F-10.8°C 39% 1.2 mph S1.9 kmh S 3.5 mph5.6 kmh 30.04 in1017.3 mb - 0.00 in0.0 mm 0.00 in0.0 mm
09:50 PM 34.6°F1.4°C 12.1°F-11.1°C 39% 1.2 mph S1.9 kmh S 2.3 mph3.7 kmh 30.04 in1017.3 mb - 0.00 in0.0 mm 0.00 in0.0 mm
10:00 PM 34.2°F1.2°C 11.8°F-11.2°C 39% Calm Calm 3.5 mph5.6 kmh 30.04 in1017.3 mb - 0.00 in0.0 mm 0.00 in0.0 mm
10:10 PM 33.5°F0.8°C 11.2°F-11.6°C 39% Calm Calm 2.3 mph3.7 kmh 30.04 in1017.3 mb - 0.00 in0.0 mm 0.00 in0.0 mm
10:20 PM 32.9°F0.5°C 11.2°F-11.6°C 40% Calm Calm 1.2 mph1.9 kmh 30.04 in1017.3 mb - 0.00 in0.0 mm 0.00 in0.0 mm
10:30 PM 32.5°F0.3°C 10.8°F-11.8°C 40% Calm Calm -- 30.04 in1017.3 mb - 0.00 in0.0 mm 0.00 in0.0 mm
10:40 PM 32.3°F0.2°C 11.2°F-11.6°C 41% Calm Calm -- 30.04 in1017.3 mb - 0.00 in0.0 mm 0.00 in0.0 mm
10:50 PM 32.1°F0.1°C 11.6°F-11.3°C 42% Calm Calm 1.2 mph1.9 kmh 30.04 in1017.3 mb - 0.00 in0.0 mm 0.00 in0.0 mm
11:00 PM 32.1°F0.1°C 11.6°F-11.3°C 42% Calm Calm 2.3 mph3.7 kmh 30.04 in1017.3 mb - 0.00 in0.0 mm 0.00 in0.0 mm
11:10 PM 32.1°F0.1°C 13.1°F-10.5°C 45% Calm Calm 1.2 mph1.9 kmh 30.04 in1017.3 mb - 0.00 in0.0 mm 0.00 in0.0 mm
11:20 PM 32.1°F0.1°C 15.1°F-9.4°C 49% 3.5 mph SSW5.6 kmh SSW 5.8 mph9.3 kmh 30.04 in1017.3 mb - 0.00 in0.0 mm 0.00 in0.0 mm
11:30 PM 32.7°F0.4°C 16.5°F-8.6°C 51% 1.2 mph SW1.9 kmh SW 2.3 mph3.7 kmh 30.04 in1017.3 mb - 0.00 in0.0 mm 0.00 in0.0 mm
11:40 PM 33.1°F0.6°C 17.8°F-7.9°C 53% 2.3 mph SW3.7 kmh SW 3.5 mph5.6 kmh 30.04 in1017.3 mb - 0.00 in0.0 mm 0.00 in0.0 mm
11:50 PM 33.5°F0.8°C 18.2°F-7.7°C 53% Calm Calm 3.5 mph5.6 kmh 30.03 in1016.9 mb - 0.00 in0.0 mm 0.00 in0.0 mm